Terminal Aerodrome Forecast
Issued by NWS

Home | Current Version | Previous Version | Text Only | Print | Product List | Glossary On
Versions: 1 2 3 4 5 6 7 8 9 10 11 12 13 14
000
FTUS43 KIWX 221100
TAFSBN
TAF
KSBN 221126Z 2212/2312 12010KT 6SM BR BKN080
     FM221500 12010KT P6SM OVC050
     FM222000 12010KT 5SM -RA BR OVC015
     FM230100 11014KT 3SM -SHRA OVC007
     FM230500 12012KT 2SM RA OVC004=

USA.gov is the U.S. government's official web portal to all federal, state and local government web resources and services.